createdAt,value
2019-05-14T00:00:21.822Z,4.58
2019-05-14T00:01:57.334Z,4.55
2019-05-14T00:03:33.187Z,4.50
2019-05-14T00:05:08.747Z,4.47
2019-05-14T00:06:46.870Z,4.45
2019-05-14T00:08:22.795Z,4.43
2019-05-14T00:09:58.686Z,4.40
2019-05-14T00:11:34.721Z,4.34
2019-05-14T00:13:12.146Z,4.25
2019-05-14T00:14:48.061Z,4.25
2019-05-14T00:16:24.305Z,4.26
2019-05-14T00:18:01.221Z,4.26
2019-05-14T00:19:37.408Z,4.26
2019-05-14T00:21:12.956Z,4.22
2019-05-14T00:22:48.461Z,4.22
2019-05-14T00:24:24.534Z,4.15
2019-05-14T00:26:01.720Z,4.11
2019-05-14T00:27:37.394Z,4.05
2019-05-14T00:29:13.441Z,4.02
2019-05-14T00:30:52.439Z,4.02
2019-05-14T00:32:31.775Z,4.02
2019-05-14T00:34:07.829Z,4.00
2019-05-14T00:35:44.178Z,4.05
2019-05-14T00:37:23.076Z,3.93
2019-05-14T00:39:01.778Z,3.95
2019-05-14T00:40:38.097Z,3.88
2019-05-14T00:42:13.720Z,3.84
2019-05-14T00:43:51.415Z,3.81
2019-05-14T00:45:26.778Z,3.73
2019-05-14T00:47:02.438Z,3.78
2019-05-14T00:48:42.164Z,3.72
2019-05-14T00:50:21.658Z,3.70
2019-05-14T00:52:02.066Z,3.64
2019-05-14T00:53:37.875Z,3.63
2019-05-14T00:55:13.858Z,3.62
2019-05-14T00:56:49.222Z,3.58
2019-05-14T00:58:28.252Z,3.58
2019-05-14T01:00:06.369Z,3.56
2019-05-14T01:01:42.735Z,3.53
2019-05-14T01:03:18.135Z,3.53
2019-05-14T01:04:55.881Z,3.48
2019-05-14T01:06:32.868Z,3.52
2019-05-14T01:08:08.566Z,3.46
2019-05-14T01:09:43.878Z,3.49
2019-05-14T01:11:19.508Z,3.44
2019-05-14T01:12:55.150Z,3.44
2019-05-14T01:14:31.748Z,3.40
2019-05-14T01:16:07.315Z,3.45
2019-05-14T01:17:43.377Z,3.43
2019-05-14T01:19:21.388Z,3.40
2019-05-14T01:20:57.247Z,3.36
2019-05-14T01:22:32.716Z,3.36
2019-05-14T01:24:08.161Z,3.32
2019-05-14T01:25:44.227Z,3.32
2019-05-14T01:27:21.143Z,3.29
2019-05-14T01:28:57.986Z,3.27
2019-05-14T01:30:33.619Z,3.24
2019-05-14T01:32:08.989Z,3.24
2019-05-14T01:33:47.642Z,3.26
2019-05-14T01:35:23.661Z,3.19
2019-05-14T01:36:59.652Z,3.23
2019-05-14T01:38:36.722Z,3.21
2019-05-14T01:40:22.886Z,3.16
2019-05-14T01:41:58.613Z,3.10
2019-05-14T01:43:36.100Z,3.03
2019-05-14T01:45:24.415Z,2.98
2019-05-14T01:46:53.536Z,2.97
2019-05-14T01:48:31.299Z,2.94
2019-05-14T01:50:06.735Z,2.94
2019-05-14T01:51:42.709Z,2.88
2019-05-14T01:53:17.965Z,2.90
2019-05-14T01:54:53.884Z,2.83
2019-05-14T01:56:29.277Z,2.80
2019-05-14T01:58:05.635Z,2.78
2019-05-14T01:59:46.903Z,2.74
2019-05-14T02:01:22.905Z,2.71
2019-05-14T02:02:58.155Z,2.69
2019-05-14T02:04:34.506Z,2.65
2019-05-14T02:06:11.727Z,2.57
2019-05-14T02:07:47.957Z,2.65
2019-05-14T02:09:23.222Z,2.63
2019-05-14T02:11:01.397Z,2.53
2019-05-14T02:12:36.239Z,2.50
2019-05-14T02:14:12.492Z,2.46
2019-05-14T02:15:47.735Z,2.55
2019-05-14T02:17:24.135Z,2.53
2019-05-14T02:19:01.416Z,2.47
2019-05-14T02:20:36.734Z,2.49
2019-05-14T02:22:12.241Z,2.45
2019-05-14T02:23:48.101Z,2.45
2019-05-14T02:25:23.200Z,2.46
2019-05-14T02:27:01.867Z,2.52
2019-05-14T02:28:37.265Z,2.46
2019-05-14T02:30:15.301Z,2.40
2019-05-14T02:31:52.688Z,2.34
2019-05-14T02:33:31.740Z,2.39
2019-05-14T02:35:09.843Z,2.42
2019-05-14T02:36:44.901Z,2.42
2019-05-14T02:38:19.973Z,2.42
2019-05-14T02:39:55.573Z,2.41
2019-05-14T02:41:31.494Z,2.37
2019-05-14T02:43:09.665Z,2.39
2019-05-14T02:44:44.648Z,2.29
2019-05-14T02:46:22.107Z,2.34
2019-05-14T02:48:00.448Z,2.35
2019-05-14T02:49:39.675Z,2.38
2019-05-14T02:51:19.785Z,2.34
2019-05-14T02:52:59.953Z,2.31
2019-05-14T02:54:40.401Z,2.32
2019-05-14T02:56:20.404Z,2.30
2019-05-14T02:57:59.862Z,2.37
2019-05-14T02:59:34.751Z,2.30
2019-05-14T03:01:12.334Z,2.36
2019-05-14T03:02:54.792Z,2.35
2019-05-14T03:04:32.564Z,2.39
2019-05-14T03:06:09.459Z,2.47
2019-05-14T03:07:45.136Z,2.55
2019-05-14T03:09:20.927Z,2.58
2019-05-14T03:10:59.957Z,2.57
2019-05-14T03:12:34.319Z,2.59
2019-05-14T03:14:10.061Z,2.61
2019-05-14T03:15:45.365Z,2.63
2019-05-14T03:17:20.864Z,2.65
2019-05-14T03:18:59.566Z,2.62
2019-05-14T03:20:38.715Z,2.58
2019-05-14T03:22:13.145Z,2.53
2019-05-14T03:23:49.812Z,2.53
2019-05-14T03:25:25.421Z,2.49
2019-05-14T03:27:02.977Z,2.49
2019-05-14T03:28:39.946Z,2.48
2019-05-14T03:30:22.171Z,2.45
2019-05-14T03:31:54.719Z,2.50
2019-05-14T03:33:33.049Z,2.49
2019-05-14T03:35:13.193Z,2.48
2019-05-14T03:36:44.697Z,2.52
2019-05-14T03:38:20.450Z,2.48
2019-05-14T03:39:55.992Z,2.48
2019-05-14T03:41:31.948Z,2.46
2019-05-14T03:43:09.061Z,2.44
2019-05-14T03:44:44.962Z,2.39
2019-05-14T03:46:20.744Z,2.36
2019-05-14T03:47:58.873Z,2.34
2019-05-14T03:49:34.891Z,2.36
2019-05-14T03:51:10.157Z,2.34
2019-05-14T03:52:45.656Z,2.30
2019-05-14T03:54:21.294Z,2.30
2019-05-14T03:55:59.654Z,2.30
2019-05-14T03:57:34.154Z,2.28
2019-05-14T03:59:09.935Z,2.26
2019-05-14T04:00:50.856Z,2.23
2019-05-14T04:02:29.474Z,2.25
2019-05-14T04:04:09.942Z,2.27
2019-05-14T04:05:49.440Z,2.27
2019-05-14T04:07:24.127Z,2.26
2019-05-14T04:09:00.851Z,2.30
2019-05-14T04:10:39.664Z,2.31
2019-05-14T04:12:13.540Z,2.26
2019-05-14T04:13:50.649Z,2.32
2019-05-14T04:15:29.856Z,2.30
2019-05-14T04:17:11.201Z,2.32
2019-05-14T04:18:43.442Z,2.31
2019-05-14T04:20:19.858Z,2.29
2019-05-14T04:21:55.003Z,2.30
2019-05-14T04:23:31.053Z,2.35
2019-05-14T04:25:10.940Z,2.33
2019-05-14T04:27:01.548Z,2.33
2019-05-14T04:28:29.648Z,2.36
2019-05-14T04:30:05.685Z,2.37
2019-05-14T04:31:41.175Z,2.35
2019-05-14T04:33:18.933Z,2.30
2019-05-14T04:34:53.612Z,2.33
2019-05-14T04:36:30.226Z,2.31
2019-05-14T04:38:05.602Z,2.37
2019-05-14T04:39:41.430Z,2.38
2019-05-14T04:41:19.929Z,2.36
2019-05-14T04:42:58.926Z,2.41
2019-05-14T04:44:32.513Z,2.46
2019-05-14T04:46:10.640Z,2.56
2019-05-14T04:47:49.915Z,2.58
2019-05-14T04:49:29.041Z,2.66
2019-05-14T04:51:05.032Z,2.66
2019-05-14T04:52:59.943Z,2.67
2019-05-14T04:54:23.830Z,2.74
2019-05-14T04:56:04.140Z,2.79
2019-05-14T04:57:44.626Z,2.86
2019-05-14T04:59:21.101Z,3.01
2019-05-14T05:01:00.452Z,3.13
2019-05-14T05:02:39.468Z,3.26
2019-05-14T05:04:12.897Z,3.39
2019-05-14T05:05:52.530Z,3.53
2019-05-14T05:07:31.547Z,3.67
2019-05-14T05:09:09.729Z,3.78
2019-05-14T05:10:45.084Z,4.00
2019-05-14T05:12:23.499Z,4.16
2019-05-14T05:13:59.413Z,4.42
2019-05-14T05:15:35.974Z,4.50
2019-05-14T05:17:11.480Z,4.72
2019-05-14T05:18:49.091Z,4.82
2019-05-14T05:20:29.149Z,4.97
2019-05-14T05:22:07.909Z,5.02
2019-05-14T05:23:42.999Z,4.94
2019-05-14T05:25:18.985Z,5.07
2019-05-14T05:26:54.577Z,4.88
2019-05-14T05:28:30.909Z,5.19
2019-05-14T05:30:13.668Z,5.15
2019-05-14T05:31:50.499Z,5.04
2019-05-14T05:33:29.325Z,5.14
2019-05-14T05:35:03.500Z,5.10
2019-05-14T05:36:40.113Z,5.17
2019-05-14T05:38:18.349Z,5.19
2019-05-14T05:39:54.569Z,5.09
2019-05-14T05:41:32.412Z,5.17
2019-05-14T05:43:08.937Z,5.29
2019-05-14T05:44:44.443Z,5.23
2019-05-14T05:46:19.901Z,5.27
2019-05-14T05:47:59.058Z,5.24
2019-05-14T05:49:33.334Z,5.33
2019-05-14T05:51:10.302Z,5.51
2019-05-14T05:52:45.723Z,5.59
2019-05-14T05:54:21.321Z,5.87
2019-05-14T05:55:59.024Z,5.89
2019-05-14T05:57:39.339Z,6.05
2019-05-14T05:59:14.310Z,6.36
2019-05-14T06:00:52.112Z,6.59
2019-05-14T06:02:29.098Z,6.75
2019-05-14T06:04:10.242Z,6.87
2019-05-14T06:05:45.907Z,6.91
2019-05-14T06:07:21.253Z,7.21
2019-05-14T06:08:59.315Z,7.18
2019-05-14T06:10:34.926Z,7.34
2019-05-14T06:12:10.613Z,7.00
2019-05-14T06:13:48.309Z,7.08
2019-05-14T06:15:23.021Z,6.78
2019-05-14T06:17:08.511Z,6.94
2019-05-14T06:21:30.448Z,7.08
2019-05-14T06:23:08.272Z,7.68
2019-05-14T06:24:43.761Z,7.65
2019-05-14T06:26:21.834Z,8.11
2019-05-14T06:27:59.078Z,8.36
2019-05-14T06:29:45.044Z,8.68
2019-05-14T06:31:30.533Z,9.09
2019-05-14T06:33:28.603Z,9.05
2019-05-14T06:35:08.834Z,9.24
2019-05-14T06:36:45.592Z,9.67
2019-05-14T06:38:26.090Z,9.75
2019-05-14T06:40:08.609Z,10.11
2019-05-14T06:41:43.592Z,10.30
2019-05-14T06:43:21.728Z,10.54
2019-05-14T06:44:58.624Z,10.71
2019-05-14T06:46:39.163Z,10.62
2019-05-14T06:48:27.124Z,10.97
2019-05-14T06:49:51.774Z,10.95
2019-05-14T06:51:28.803Z,10.71
2019-05-14T06:53:04.384Z,10.34
2019-05-14T06:54:40.285Z,10.55
2019-05-14T06:56:18.988Z,10.70
2019-05-14T06:57:53.572Z,10.95
2019-05-14T06:59:29.049Z,11.57
2019-05-14T07:01:09.238Z,11.70
2019-05-14T07:02:44.629Z,11.44
2019-05-14T07:04:20.314Z,11.89
2019-05-14T07:05:59.523Z,12.08
2019-05-14T07:07:35.271Z,12.12
2019-05-14T07:09:10.795Z,12.52
2019-05-14T07:10:50.551Z,12.58
2019-05-14T07:12:29.507Z,12.59
2019-05-14T07:14:08.186Z,12.75
2019-05-14T07:15:45.161Z,12.84
2019-05-14T07:17:23.133Z,12.62
2019-05-14T07:18:59.128Z,12.75
2019-05-14T07:20:39.213Z,12.69
2019-05-14T07:22:23.700Z,12.86
2019-05-14T07:24:05.771Z,12.53
2019-05-14T07:25:41.781Z,12.85
2019-05-14T07:27:19.103Z,13.04
2019-05-14T07:28:54.695Z,12.69
2019-05-14T07:30:31.297Z,12.63
2019-05-14T07:32:08.948Z,12.89
2019-05-14T07:33:44.453Z,13.02
2019-05-14T07:35:20.440Z,12.56
2019-05-14T07:36:58.454Z,12.66
2019-05-14T07:38:33.458Z,12.65
2019-05-14T07:40:09.466Z,12.59
2019-05-14T07:41:45.304Z,12.67
2019-05-14T07:43:20.555Z,12.43
2019-05-14T07:44:58.725Z,12.40
2019-05-14T07:46:33.723Z,12.23
2019-05-14T07:48:09.987Z,12.30
2019-05-14T07:49:49.044Z,12.54
2019-05-14T07:51:29.326Z,12.72
2019-05-14T07:53:09.003Z,12.56
2019-05-14T07:54:50.797Z,12.66
2019-05-14T07:56:29.580Z,12.65
2019-05-14T07:58:19.605Z,12.45
2019-05-14T07:59:48.419Z,12.49
2019-05-14T08:01:29.755Z,12.53
2019-05-14T08:03:05.347Z,12.75
2019-05-14T08:04:40.897Z,12.79
2019-05-14T08:06:18.692Z,12.74
2019-05-14T08:07:53.406Z,13.19
2019-05-14T08:09:30.568Z,13.33
2019-05-14T08:11:08.436Z,13.54
2019-05-14T08:12:43.467Z,13.34
2019-05-14T08:14:19.250Z,13.11
2019-05-14T08:15:58.336Z,13.44
2019-05-14T08:17:34.215Z,12.89
2019-05-14T08:19:26.077Z,13.11
2019-05-14T08:20:52.945Z,13.15
2019-05-14T08:22:31.406Z,13.46
2019-05-14T08:24:08.940Z,13.99
2019-05-14T08:25:45.236Z,14.51
2019-05-14T08:27:31.071Z,14.07
2019-05-14T08:29:08.707Z,13.90
2019-05-14T08:30:45.296Z,14.45
2019-05-14T08:32:21.243Z,14.89
2019-05-14T08:33:59.002Z,14.04
2019-05-14T08:35:35.975Z,13.87
2019-05-14T08:37:14.993Z,13.92
2019-05-14T08:38:52.079Z,13.90
2019-05-14T08:40:28.707Z,13.62
2019-05-14T08:42:12.836Z,14.37
2019-05-14T08:43:51.469Z,13.94
2019-05-14T08:45:28.588Z,13.70
2019-05-14T08:47:18.282Z,13.67
2019-05-14T08:48:51.889Z,13.21
2019-05-14T08:50:29.053Z,12.96
2019-05-14T08:52:09.922Z,13.04
2019-05-14T08:53:49.755Z,12.65
2019-05-14T08:55:29.518Z,13.26
2019-05-14T08:57:05.128Z,13.62
2019-05-14T08:58:40.781Z,13.71
2019-05-14T09:00:18.351Z,13.60
2019-05-14T09:02:02.423Z,13.45
2019-05-14T09:03:35.384Z,13.98
2019-05-14T09:05:18.114Z,14.70
2019-05-14T09:06:54.543Z,14.16
2019-05-14T09:08:31.437Z,14.12
2019-05-14T09:10:19.177Z,15.03
2019-05-14T09:11:55.934Z,15.49
2019-05-14T09:13:33.532Z,15.39
2019-05-14T09:15:18.651Z,13.86
2019-05-14T09:17:00.139Z,13.29
2019-05-14T09:18:49.725Z,13.12
2019-05-14T09:20:29.455Z,12.75
2019-05-14T09:22:05.270Z,12.36
2019-05-14T09:23:43.136Z,11.98
2019-05-14T09:25:20.965Z,11.72
2019-05-14T09:26:59.114Z,11.49
2019-05-14T09:28:33.851Z,11.97
2019-05-14T09:30:10.085Z,12.13
2019-05-14T09:31:45.266Z,12.84
2019-05-14T09:33:29.426Z,13.24
2019-05-14T09:35:10.069Z,13.78
2019-05-14T09:36:45.611Z,13.72
2019-05-14T09:38:22.779Z,13.01
2019-05-14T09:40:21.866Z,13.19
2019-05-14T09:42:01.195Z,13.34
2019-05-14T09:43:39.025Z,12.90
2019-05-14T09:45:15.110Z,12.65
2019-05-14T09:46:52.043Z,13.16
2019-05-14T09:48:29.443Z,13.63
2019-05-14T09:50:22.897Z,14.01
2019-05-14T09:51:48.843Z,14.51
2019-05-14T09:53:28.809Z,14.67
2019-05-14T09:55:09.140Z,14.29
2019-05-14T09:56:44.174Z,15.02
2019-05-14T09:58:20.145Z,15.64
2019-05-14T09:59:58.449Z,16.36
2019-05-14T10:01:39.109Z,16.94
2019-05-14T10:03:19.228Z,17.27
2019-05-14T10:05:01.009Z,17.18
2019-05-14T10:06:39.237Z,16.99
2019-05-14T10:08:14.490Z,15.54
2019-05-14T10:09:50.065Z,14.94
2019-05-14T10:11:25.741Z,14.57
2019-05-14T10:13:01.989Z,13.59
2019-05-14T10:14:39.320Z,12.60
2019-05-14T10:16:19.314Z,13.06
2019-05-14T10:17:52.047Z,13.33
2019-05-14T10:19:29.519Z,13.77
2019-05-14T10:21:08.792Z,14.42
2019-05-14T10:22:48.159Z,14.65
2019-05-14T10:24:22.873Z,14.92
2019-05-14T10:25:58.526Z,15.79
2019-05-14T10:27:36.642Z,15.90
2019-05-14T10:29:12.666Z,16.43
2019-05-14T10:30:49.091Z,15.97
2019-05-14T10:32:29.515Z,16.61
2019-05-14T10:34:08.361Z,16.92
2019-05-14T10:35:48.176Z,15.55
2019-05-14T10:37:24.898Z,15.40
2019-05-14T10:39:01.679Z,15.44
2019-05-14T10:40:38.415Z,15.20
2019-05-14T10:42:15.931Z,13.45
2019-05-14T10:43:58.830Z,13.05
2019-05-14T10:45:39.311Z,13.01
2019-05-14T10:47:24.384Z,12.96
2019-05-14T10:49:16.435Z,12.89
2019-05-14T10:50:55.685Z,13.25
2019-05-14T10:52:19.903Z,12.79
2019-05-14T10:53:59.368Z,12.53
2019-05-14T10:55:39.794Z,12.91
2019-05-14T10:57:18.307Z,13.15
2019-05-14T10:58:54.092Z,12.87
2019-05-14T11:00:29.742Z,12.55
2019-05-14T11:02:05.346Z,12.30
2019-05-14T11:03:41.302Z,12.72
2019-05-14T11:05:18.811Z,12.52
2019-05-14T11:08:04.234Z,13.63
2019-05-14T11:08:44.502Z,13.68
2019-05-14T11:10:30.458Z,13.39
2019-05-14T11:12:22.348Z,12.43
2019-05-14T11:14:19.234Z,13.02
2019-05-14T11:15:59.244Z,12.89
2019-05-14T11:17:40.724Z,12.56
2019-05-14T11:19:18.856Z,13.19
2019-05-14T11:21:14.597Z,13.35
2019-05-14T11:22:35.611Z,13.92
2019-05-14T11:24:10.770Z,14.19
2019-05-14T11:25:52.442Z,14.66
2019-05-14T11:27:29.326Z,15.00
2019-05-14T11:29:05.194Z,13.77
2019-05-14T11:30:40.373Z,13.54
2019-05-14T11:32:20.549Z,14.55
2019-05-14T11:33:55.901Z,15.12
2019-05-14T11:35:31.723Z,15.49
2019-05-14T11:37:08.587Z,15.50
2019-05-14T11:38:44.867Z,15.62
2019-05-14T11:40:20.927Z,16.29
2019-05-14T11:41:59.243Z,16.87
2019-05-14T11:43:34.562Z,17.12
2019-05-14T11:45:14.281Z,16.81
2019-05-14T11:46:57.155Z,16.70
2019-05-14T11:48:27.562Z,16.65
2019-05-14T11:50:02.909Z,15.92
2019-05-14T11:51:59.372Z,15.37
2019-05-14T11:53:22.693Z,13.80
2019-05-14T11:55:00.704Z,13.03
2019-05-14T11:56:41.968Z,12.79
2019-05-14T11:58:21.263Z,12.91
2019-05-14T11:59:58.167Z,14.02
2019-05-14T12:01:34.207Z,13.44
2019-05-14T12:03:12.791Z,13.89
2019-05-14T12:04:53.017Z,14.25
2019-05-14T12:06:30.432Z,15.01
2019-05-14T12:08:08.545Z,15.29
2019-05-14T12:09:43.561Z,15.56
2019-05-14T12:11:20.323Z,14.81
2019-05-14T12:12:58.930Z,14.17
2019-05-14T12:14:34.257Z,13.98
2019-05-14T12:16:11.547Z,13.45
2019-05-14T12:17:50.582Z,13.20
2019-05-14T12:19:28.844Z,12.97
2019-05-14T12:21:18.484Z,12.55
2019-05-14T12:22:56.231Z,12.89
2019-05-14T12:24:33.663Z,13.80
2019-05-14T12:26:14.425Z,14.30
2019-05-14T12:27:58.894Z,14.84
2019-05-14T12:29:34.147Z,14.72
2019-05-14T12:31:10.664Z,15.16
2019-05-14T12:32:49.319Z,15.43
2019-05-14T12:34:24.190Z,16.27
2019-05-14T12:36:00.608Z,16.30
2019-05-14T12:37:38.735Z,16.10
2019-05-14T12:39:18.596Z,16.03
2019-05-14T12:40:53.275Z,17.11
2019-05-14T12:42:32.825Z,16.02
2019-05-14T12:44:10.652Z,14.36
2019-05-14T12:45:51.573Z,13.69
2019-05-14T12:47:33.147Z,13.06
2019-05-14T12:49:12.363Z,13.04
2019-05-14T12:50:49.007Z,12.61
2019-05-14T12:52:26.187Z,13.31
2019-05-14T12:54:02.456Z,13.87
2019-05-14T12:55:40.127Z,14.24
2019-05-14T12:57:15.451Z,13.94
2019-05-14T12:58:58.351Z,14.41
2019-05-14T13:00:34.586Z,14.99
2019-05-14T13:02:15.105Z,15.14
2019-05-14T13:03:50.807Z,15.59
2019-05-14T13:05:36.310Z,15.47
2019-05-14T13:07:13.487Z,15.54
2019-05-14T13:09:04.333Z,15.87
2019-05-14T13:10:58.624Z,16.23
2019-05-14T13:12:41.060Z,15.16
2019-05-14T13:14:17.098Z,13.72
2019-05-14T13:15:52.442Z,13.74
2019-05-14T13:17:29.708Z,13.86
2019-05-14T13:19:09.822Z,13.42
2019-05-14T13:20:52.310Z,13.04
2019-05-14T13:22:41.553Z,13.43
2019-05-14T13:24:10.180Z,14.27
2019-05-14T13:25:48.459Z,14.02
2019-05-14T13:27:29.114Z,13.69
2019-05-14T13:29:13.235Z,14.67
2019-05-14T13:30:49.730Z,14.55
2019-05-14T13:32:28.843Z,14.53
2019-05-14T13:34:08.718Z,13.72
2019-05-14T13:35:48.207Z,13.66
2019-05-14T13:37:28.876Z,13.66
2019-05-14T13:39:09.239Z,14.15
2019-05-14T13:40:49.352Z,14.24
2019-05-14T13:42:29.361Z,14.92
2019-05-14T13:44:18.438Z,15.36
2019-05-14T13:45:44.722Z,15.56
2019-05-14T13:47:21.813Z,15.41
2019-05-14T13:48:59.086Z,14.98
2019-05-14T13:50:42.952Z,14.37
2019-05-14T13:52:30.911Z,13.73
2019-05-14T13:54:09.899Z,14.32
2019-05-14T13:55:55.464Z,15.20
2019-05-14T13:57:28.550Z,14.63
2019-05-14T13:59:09.130Z,14.40
2019-05-14T14:00:51.580Z,14.15
2019-05-14T14:02:27.854Z,14.75
2019-05-14T14:04:12.499Z,14.63
2019-05-14T14:05:44.780Z,14.34
2019-05-14T14:07:31.039Z,13.90
2019-05-14T14:09:12.266Z,13.94
2019-05-14T14:10:46.557Z,14.18
2019-05-14T14:12:25.410Z,14.43
2019-05-14T14:14:00.280Z,13.91
2019-05-14T14:15:39.926Z,14.02
2019-05-14T14:17:23.482Z,14.45
2019-05-14T14:19:03.529Z,14.74
2019-05-14T14:20:39.650Z,14.50
2019-05-14T14:22:19.380Z,14.75
2019-05-14T14:23:55.140Z,14.97
2019-05-14T14:25:33.126Z,14.76
2019-05-14T14:27:19.359Z,14.79
2019-05-14T14:29:00.771Z,14.67
2019-05-14T14:30:39.430Z,14.05
2019-05-14T14:32:14.405Z,13.51
2019-05-14T14:33:50.416Z,13.83
2019-05-14T14:35:30.732Z,14.14
2019-05-14T14:37:10.005Z,14.41
2019-05-14T14:38:49.834Z,14.35
2019-05-14T14:40:30.138Z,14.73
2019-05-14T14:42:08.302Z,14.96
2019-05-14T14:43:44.847Z,15.26
2019-05-14T14:45:22.390Z,15.46
2019-05-14T14:47:03.623Z,15.12
2019-05-14T14:48:39.693Z,15.43
2019-05-14T14:50:19.585Z,15.15
2019-05-14T14:51:55.247Z,15.22
2019-05-14T14:53:52.442Z,14.89
2019-05-14T14:55:22.827Z,15.11
2019-05-14T14:57:04.401Z,14.80
2019-05-14T14:58:41.278Z,14.30
2019-05-14T15:00:22.441Z,14.39
2019-05-14T15:02:12.539Z,14.01
2019-05-14T15:04:01.404Z,13.50
2019-05-14T15:05:43.004Z,13.74
2019-05-14T15:07:18.782Z,13.98
2019-05-14T15:09:17.421Z,14.40
2019-05-14T15:11:08.656Z,14.48
2019-05-14T15:12:52.067Z,14.88
2019-05-14T15:14:29.678Z,15.10
2019-05-14T15:16:13.317Z,15.13
2019-05-14T15:17:49.817Z,14.89
2019-05-14T15:19:29.808Z,14.68
2019-05-14T15:21:05.472Z,14.08
2019-05-14T15:22:41.289Z,13.95
2019-05-14T15:24:23.121Z,13.88
2019-05-14T15:26:11.507Z,14.12
2019-05-14T15:27:59.219Z,14.14
2019-05-14T15:29:39.767Z,14.25
2019-05-14T15:31:20.504Z,13.93
2019-05-14T15:32:56.038Z,13.58
2019-05-14T15:34:34.452Z,14.23
2019-05-14T15:36:11.148Z,14.13
2019-05-14T15:37:48.722Z,14.07
2019-05-14T15:39:30.544Z,13.76
2019-05-14T15:41:12.689Z,13.46
2019-05-14T15:42:46.226Z,12.90
2019-05-14T15:44:24.639Z,12.99
2019-05-14T15:46:02.797Z,12.80
2019-05-14T15:47:45.361Z,13.01
2019-05-14T15:49:35.900Z,13.21
2019-05-14T15:51:15.165Z,13.31
2019-05-14T15:52:54.388Z,13.55
2019-05-14T15:54:42.280Z,13.58
2019-05-14T15:56:08.103Z,13.75
2019-05-14T15:57:46.495Z,13.88
2019-05-14T15:59:28.482Z,14.10
2019-05-14T16:01:04.898Z,14.19
2019-05-14T16:02:44.708Z,14.19
2019-05-14T16:04:22.377Z,13.77
2019-05-14T16:06:03.791Z,13.64
2019-05-14T16:07:41.888Z,13.63
2019-05-14T16:09:20.247Z,13.87
2019-05-14T16:11:10.964Z,14.02
2019-05-14T16:12:49.567Z,13.96
2019-05-14T16:14:30.098Z,14.35
2019-05-14T16:16:10.228Z,14.40
2019-05-14T16:17:53.552Z,14.34
2019-05-14T16:19:25.281Z,14.07
2019-05-14T16:21:10.526Z,14.20
2019-05-14T16:22:46.542Z,14.08
2019-05-14T16:24:28.557Z,13.71
2019-05-14T16:26:09.627Z,14.08
2019-05-14T16:27:49.052Z,14.04
2019-05-14T16:29:40.396Z,14.11
2019-05-14T16:31:04.224Z,14.07
2019-05-14T16:32:39.878Z,13.91
2019-05-14T16:34:21.322Z,13.66
2019-05-14T16:36:03.509Z,13.89
2019-05-14T16:37:42.318Z,13.87
2019-05-14T16:39:21.464Z,14.12
2019-05-14T16:41:02.823Z,14.14
2019-05-14T16:42:39.573Z,14.10
2019-05-14T16:44:19.814Z,14.18
2019-05-14T16:46:00.448Z,14.06
2019-05-14T16:47:39.817Z,13.91
2019-05-14T16:49:19.203Z,13.94
2019-05-14T16:50:58.296Z,13.72
2019-05-14T16:52:41.728Z,13.75
2019-05-14T16:54:18.368Z,13.54
2019-05-14T16:55:58.516Z,13.41
2019-05-14T16:57:34.022Z,13.31
2019-05-14T16:59:14.827Z,13.26
2019-05-14T17:00:55.841Z,13.32
2019-05-14T17:02:34.828Z,13.19
2019-05-14T17:04:16.369Z,13.31
2019-05-14T17:05:52.235Z,13.11
2019-05-14T17:07:32.240Z,13.22
2019-05-14T17:09:30.008Z,13.33
2019-05-14T17:11:13.310Z,13.31
2019-05-14T17:12:56.859Z,13.17
2019-05-14T17:14:29.526Z,12.80
2019-05-14T17:16:05.683Z,13.07
2019-05-14T17:17:48.052Z,13.04
2019-05-14T17:19:24.766Z,12.67
2019-05-14T17:21:12.268Z,12.57
2019-05-14T17:22:51.912Z,12.59
2019-05-14T17:24:30.119Z,12.82
2019-05-14T17:26:05.820Z,13.07
2019-05-14T17:27:45.169Z,13.20
2019-05-14T17:29:28.584Z,13.14
2019-05-14T17:31:04.270Z,13.13
2019-05-14T17:32:53.163Z,13.15
2019-05-14T17:34:35.261Z,13.13
2019-05-14T17:36:13.185Z,13.29
2019-05-14T17:37:51.238Z,13.08
2019-05-14T17:39:29.737Z,12.97
2019-05-14T17:41:14.207Z,12.65
2019-05-14T17:42:55.020Z,12.70
2019-05-14T17:44:43.098Z,12.68
2019-05-14T17:46:20.324Z,12.41
2019-05-14T17:47:58.342Z,12.36
2019-05-14T17:49:43.238Z,12.15
2019-05-14T17:51:25.072Z,12.16
2019-05-14T17:53:04.450Z,12.18
2019-05-14T17:54:48.371Z,12.12
2019-05-14T17:56:25.147Z,12.05
2019-05-14T17:58:00.665Z,11.95
2019-05-14T18:00:00.495Z,11.96
2019-05-14T18:01:39.091Z,11.79
2019-05-14T18:03:18.426Z,11.82
2019-05-14T18:04:59.187Z,11.84
2019-05-14T18:06:42.683Z,11.73
2019-05-14T18:08:18.755Z,11.55
2019-05-14T18:09:58.904Z,11.48
2019-05-14T18:11:45.180Z,11.30
2019-05-14T18:13:24.718Z,11.11
2019-05-14T18:15:16.562Z,11.04
2019-05-14T18:17:03.839Z,10.91
2019-05-14T18:19:06.173Z,10.95
2019-05-14T18:20:48.821Z,10.87
2019-05-14T18:22:28.899Z,10.93
2019-05-14T18:24:10.167Z,10.84
2019-05-14T18:26:05.067Z,10.65
2019-05-14T18:27:38.781Z,10.71
2019-05-14T18:29:15.045Z,10.76
2019-05-14T18:31:10.130Z,10.76
2019-05-14T18:32:58.449Z,10.70
2019-05-14T18:34:40.669Z,10.73
2019-05-14T18:36:20.486Z,10.69
2019-05-14T18:37:56.246Z,10.69
2019-05-14T18:39:34.506Z,10.65
2019-05-14T18:41:12.675Z,10.55
2019-05-14T18:42:49.360Z,10.51
2019-05-14T18:44:34.457Z,10.46
2019-05-14T18:46:18.971Z,10.26
2019-05-14T18:47:55.819Z,10.15
2019-05-14T18:49:37.795Z,10.10
2019-05-14T18:51:21.258Z,10.07
2019-05-14T18:52:59.704Z,9.92
2019-05-14T18:54:40.450Z,9.77
2019-05-14T18:56:29.266Z,9.75
2019-05-14T18:58:08.410Z,9.65
2019-05-14T18:59:42.905Z,9.53
2019-05-14T19:01:19.897Z,9.42
2019-05-14T19:02:57.655Z,9.35
2019-05-14T19:04:33.294Z,9.22
2019-05-14T19:06:11.318Z,9.22
2019-05-14T19:07:48.693Z,9.16
2019-05-14T19:09:25.434Z,9.04
2019-05-14T19:11:02.506Z,8.94
2019-05-14T19:12:38.694Z,8.85
2019-05-14T19:14:15.393Z,8.81
2019-05-14T19:15:53.712Z,8.73
2019-05-14T19:17:33.155Z,8.60
2019-05-14T19:19:10.925Z,8.55
2019-05-14T19:20:48.580Z,8.46
2019-05-14T19:22:29.097Z,8.41
2019-05-14T19:24:06.381Z,8.37
2019-05-14T19:25:41.470Z,8.25
2019-05-14T19:27:22.924Z,8.22
2019-05-14T19:29:01.778Z,8.17
2019-05-14T19:30:38.797Z,8.13
2019-05-14T19:32:14.504Z,7.97
2019-05-14T19:33:50.302Z,7.88
2019-05-14T19:35:28.862Z,7.75
2019-05-14T19:37:12.252Z,7.66
2019-05-14T19:38:50.374Z,7.58
2019-05-14T19:40:32.910Z,7.53
2019-05-14T19:42:13.006Z,7.49
2019-05-14T19:43:50.557Z,7.33
2019-05-14T19:45:34.119Z,7.33
2019-05-14T19:47:22.013Z,7.22
2019-05-14T19:49:01.219Z,7.11
2019-05-14T19:50:38.934Z,7.01
2019-05-14T19:52:14.812Z,6.90
2019-05-14T19:53:52.606Z,6.78
2019-05-14T19:55:28.759Z,6.72
2019-05-14T19:57:10.097Z,6.71
2019-05-14T19:58:51.120Z,6.62
2019-05-14T20:00:30.743Z,6.58
2019-05-14T20:02:09.589Z,6.57
2019-05-14T20:03:54.639Z,6.60
2019-05-14T20:05:32.339Z,6.61
2019-05-14T20:07:08.915Z,6.66
2019-05-14T20:08:45.065Z,6.66
2019-05-14T20:10:25.735Z,6.75
2019-05-14T20:12:03.157Z,6.81
2019-05-14T20:13:48.622Z,6.90
2019-05-14T20:15:26.604Z,6.79
2019-05-14T20:17:08.753Z,6.83
2019-05-14T20:18:50.048Z,6.80
2019-05-14T20:20:28.879Z,6.84
2019-05-14T20:22:12.642Z,6.77
2019-05-14T20:23:50.426Z,6.70
2019-05-14T20:25:41.381Z,6.69
2019-05-14T20:27:16.950Z,6.64
2019-05-14T20:28:56.232Z,6.64
2019-05-14T20:30:38.607Z,6.66
2019-05-14T20:32:21.461Z,6.58
2019-05-14T20:58:28.947Z,5.98
2019-05-14T21:00:14.700Z,5.93
2019-05-14T21:01:52.881Z,5.88
2019-05-14T21:03:35.166Z,5.84
2019-05-14T21:05:18.865Z,5.86
2019-05-14T21:07:00.151Z,5.76
2019-05-14T21:08:58.650Z,5.67
2019-05-14T21:10:40.920Z,5.56
2019-05-14T21:12:28.896Z,5.45
2019-05-14T21:14:11.267Z,5.31
2019-05-14T21:15:54.283Z,5.20
2019-05-14T21:17:35.154Z,5.10
2019-05-14T21:19:12.581Z,4.97
2019-05-14T21:21:03.146Z,4.85
2019-05-14T21:22:42.609Z,4.76
2019-05-14T21:24:24.666Z,4.63
2019-05-14T21:26:03.137Z,4.55
2019-05-14T21:27:48.429Z,4.47
2019-05-14T21:29:21.850Z,4.43
2019-05-14T21:31:03.814Z,4.37
2019-05-14T21:32:42.900Z,4.25
2019-05-14T21:34:35.206Z,4.17
2019-05-14T21:36:12.363Z,4.09
2019-05-14T21:37:51.519Z,3.99
2019-05-14T21:39:27.763Z,3.91
2019-05-14T21:41:03.210Z,3.84
2019-05-14T21:42:45.360Z,3.79
2019-05-14T21:44:32.434Z,3.72
2019-05-14T21:46:21.248Z,3.68
2019-05-14T21:48:01.570Z,3.64
2019-05-14T21:49:38.988Z,3.57
2019-05-14T21:51:18.040Z,3.50
2019-05-14T21:52:52.801Z,3.45
2019-05-14T21:54:31.159Z,3.40
2019-05-14T21:56:12.397Z,3.35
2019-05-14T21:57:56.113Z,3.31